Silver Star Mountain, Canada
Current Conditions -  °F | °C
As of 9:00 AM on Thursday 30 Oct 2014 (Local Time) from CYLW Reporting Station
Overcast Overcast  
Wind Chill: 45°   Ceiling: 6000
Heat Index: 45°   Visibility: 9mi
Dew Point: 43°   Wind: 2mph
Humidity: 93%   Direction: NA
Pressure: 30.09"   Gusts: NA
Location:  50.36°N, 119.07°W
Report Text: CYLW 301600Z AUTO VRB02KT 9SM OVC060 07/06 A3009 RMK SLP198
Loading
Personal Weather Stations






























Interactive Weather Map
Tropical Storm Tracking
New forecast layout! Learn more

10-Day Weather Forecast

Advertisements
Track Severe Weather on mobile